Terminal Aerodrome Forecast
Issued by NWS

Current Version | Previous Version | Text Only | Print | Product List | Glossary On
Versions: 1 2 3 4 5 6 7 8 9 10 11 12 13 14 15
000
FTPA31 PHFO 250539
TAFSTU
TAF
NSTU 250539Z 2506/2606 10008KT P6SM SCT018 SCT040 BKN100
     FM251800 09008KT P6SM VCSH SCT018 BKN040=

USA.gov is the U.S. government's official web portal to all federal, state and local government web resources and services.